Terminal Aerodrome Forecast
Issued by NWS

Home | Current Version | Previous Version | Text Only | Print | Product List | Glossary On
Versions: 1 2 3 4 5 6 7 8 9 10 11 12 13 14 15 16 17 18 19 20 21 22 23 24 25 26
000
FTUS43 KJKL 040521
TAFSJS
TAF
KSJS 040521Z 0406/0506 23003KT 1SM BR BKN006 BKN130
      TEMPO 0406/0410 6SM BR SCT010 BKN130
     FM041300 25003KT 5SM BR BKN010
     FM041500 26004KT P6SM BKN025
     FM041700 28004KT P6SM BKN035 BKN090=

USA.gov is the U.S. government's official web portal to all federal, state and local government web resources and services.